Time;durP1;ratioP1;P1;durP2;ratioP2;P2;SDS_P1;SDS_P2;PMS_P1;PMS_P2;Temp;Humidity;BMP_temperature;BMP_pressure;BME280_temperature;BME280_humidity;BME280_pressure;Samples;Min_cycle;Max_cycle;Signal;HPM_P1;HPM_P2
2023/09/29 00:00:21;;;;;;;6.00;4.37;;;;;;;15.07;100.00;98404.72;5076002;28;20217;-79
2023/09/29 00:02:50;;;;;;;6.17;4.80;;;;;;;15.03;100.00;98404.13;5075578;28;20601;-79
2023/09/29 00:05:18;;;;;;;5.87;4.67;;;;;;;15.05;100.00;98412.00;5076394;28;20230;-79
2023/09/29 00:07:45;;;;;;;4.80;3.97;;;;;;;15.01;100.00;98407.88;5075794;28;20207;-79
2023/09/29 00:10:15;;;;;;;7.37;4.97;;;;;;;14.98;100.00;98394.84;5076051;28;20567;-79
2023/09/29 00:12:44;;;;;;;6.97;4.13;;;;;;;15.01;100.00;98395.44;5075593;28;20590;-79
2023/09/29 00:15:11;;;;;;;6.70;4.73;;;;;;;15.02;100.00;98396.28;5075910;28;20226;-79
2023/09/29 00:17:38;;;;;;;6.63;5.13;;;;;;;15.12;100.00;98391.88;5079793;28;20234;-79
2023/09/29 00:20:12;;;;;;;7.17;4.70;;;;;;;15.09;100.00;98397.47;5080518;28;20207;-79
2023/09/29 00:22:39;;;;;;;6.13;4.70;;;;;;;15.05;100.00;98390.69;5080033;28;20232;-79
2023/09/29 00:25:06;;;;;;;7.93;4.40;;;;;;;15.02;100.00;98393.63;5079990;28;20249;-79
2023/09/29 00:27:34;;;;;;;6.70;4.17;;;;;;;14.97;100.00;98393.97;5080208;28;20207;-79
2023/09/29 00:30:04;;;;;;;6.63;4.40;;;;;;;14.96;100.00;98407.44;5080283;28;20211;-79
2023/09/29 00:32:31;;;;;;;5.67;4.30;;;;;;;14.94;100.00;98409.38;5080350;28;20661;-79
2023/09/29 00:34:58;;;;;;;6.43;4.13;;;;;;;14.90;100.00;98402.63;5079579;28;20222;-79
2023/09/29 00:37:25;;;;;;;6.03;4.30;;;;;;;14.89;100.00;98406.22;5080120;28;20211;-79
2023/09/29 00:39:52;;;;;;;5.53;4.20;;;;;;;14.87;100.00;98409.03;5079840;28;20722;-79
2023/09/29 00:42:19;;;;;;;5.30;4.43;;;;;;;14.87;100.00;98409.03;5080103;28;20227;-79
2023/09/29 00:44:45;;;;;;;4.33;3.70;;;;;;;14.88;100.00;98408.06;5080030;28;20295;-79
2023/09/29 00:47:15;;;;;;;5.70;4.10;;;;;;;14.87;100.00;98409.03;5080533;28;20207;-79
2023/09/29 00:49:42;;;;;;;4.30;3.60;;;;;;;14.90;100.00;98407.94;5080821;28;20242;-79
2023/09/29 00:52:09;;;;;;;5.93;4.53;;;;;;;14.91;100.00;98399.81;5080327;28;20228;-79
2023/09/29 00:54:37;;;;;;;7.73;4.40;;;;;;;14.93;100.00;98407.69;5080996;28;20666;-79
2023/09/29 00:57:05;;;;;;;6.57;4.40;;;;;;;14.91;100.00;98397.16;5080557;28;20724;-79
2023/09/29 00:59:34;;;;;;;7.03;4.17;;;;;;;14.90;100.00;98398.13;5081106;28;20203;-79
2023/09/29 01:02:03;;;;;;;6.33;4.17;;;;;;;14.90;100.00;98397.31;5080745;28;20223;-79
2023/09/29 01:04:34;;;;;;;6.57;4.27;;;;;;;14.92;100.00;98395.34;5080535;28;20513;-79
2023/09/29 01:07:01;;;;;;;4.70;4.17;;;;;;;14.92;100.00;98401.50;5079928;28;20218;-79
2023/09/29 01:09:28;;;;;;;6.27;4.30;;;;;;;14.91;100.00;98393.66;5079783;28;20207;-79
2023/09/29 01:11:55;;;;;;;7.30;4.37;;;;;;;14.87;100.00;98395.72;5078977;28;20235;-79
2023/09/29 01:14:22;;;;;;;5.30;3.90;;;;;;;14.84;100.00;98398.63;5079758;28;20301;-79
2023/09/29 01:16:49;;;;;;;5.77;4.00;;;;;;;14.80;100.00;98396.34;5079931;28;20214;-79
2023/09/29 01:19:17;;;;;;;6.63;4.20;;;;;;;14.73;100.00;98396.00;5079542;28;20207;-79
2023/09/29 01:21:48;;;;;;;6.17;4.03;;;;;;;14.61;100.00;98396.16;5079204;28;20238;-79
2023/09/29 01:24:16;;;;;;;5.50;4.13;;;;;;;14.51;100.00;98400.53;5079355;28;20319;-79
2023/09/29 01:26:44;;;;;;;4.43;3.97;;;;;;;14.41;100.00;98399.56;5079478;28;20211;-79
2023/09/29 01:29:11;;;;;;;5.37;4.30;;;;;;;14.35;100.00;98400.09;5078500;28;20739;-79
2023/09/29 01:31:38;;;;;;;6.57;4.43;;;;;;;14.25;100.00;98389.31;5079101;28;20326;-79
2023/09/29 01:34:05;;;;;;;5.30;4.23;;;;;;;14.19;100.00;98386.31;5079765;28;20207;-79
2023/09/29 01:36:32;;;;;;;5.30;4.07;;;;;;;14.23;100.00;98390.44;5079651;28;20203;-79
2023/09/29 01:38:59;;;;;;;6.57;4.47;;;;;;;14.26;100.00;98390.19;5079669;28;20264;-79
2023/09/29 01:41:27;;;;;;;6.70;4.00;;;;;;;14.26;100.00;98390.19;5079656;28;20263;-79
2023/09/29 01:43:53;;;;;;;6.37;3.83;;;;;;;14.20;100.00;98391.53;5079339;28;20218;-79
2023/09/29 01:46:20;;;;;;;5.67;3.80;;;;;;;14.19;100.00;98395.13;5080310;28;20211;-79
2023/09/29 01:48:46;;;;;;;4.47;3.67;;;;;;;14.14;100.00;98397.28;5079795;28;20214;-79
2023/09/29 01:51:16;;;;;;;5.37;3.80;;;;;;;14.13;100.00;98392.09;5078812;28;20239;-79
2023/09/29 01:53:42;;;;;;;5.97;4.00;;;;;;;14.17;100.00;98390.88;5079716;28;20262;-79
2023/09/29 01:56:09;;;;;;;7.17;4.20;;;;;;;14.21;100.00;98389.69;5079497;28;20207;-79
2023/09/29 01:58:37;;;;;;;6.50;4.10;;;;;;;14.18;100.00;98388.09;5079672;28;20226;-79
2023/09/29 02:01:03;;;;;;;7.10;4.20;;;;;;;14.18;100.00;98387.25;5078712;28;20223;-79
2023/09/29 02:03:30;;;;;;;5.03;3.87;;;;;;;14.19;100.00;98388.97;5079196;28;20211;-79
2023/09/29 02:05:57;;;;;;;6.00;3.77;;;;;;;14.19;100.00;98383.66;5079133;28;20254;-79
2023/09/29 02:08:24;;;;;;;7.47;4.17;;;;;;;14.20;100.00;98390.66;5079310;28;20265;-79
2023/09/29 02:10:52;;;;;;;6.10;4.27;;;;;;;14.23;100.00;98387.78;5079553;28;20235;-79
2023/09/29 02:13:19;;;;;;;5.43;4.20;;;;;;;14.18;100.00;98381.94;5079205;28;20666;-79
2023/09/29 02:15:46;;;;;;;6.07;4.10;;;;;;;14.20;100.00;98380.88;5079380;28;20211;-79
2023/09/29 02:18:13;;;;;;;6.47;4.47;;;;;;;14.16;100.00;98378.53;5079417;28;20211;-79
2023/09/29 02:20:46;;;;;;;7.73;4.33;;;;;;;14.18;100.00;98377.44;5078978;28;20207;-79
2023/09/29 02:23:14;;;;;;;5.93;4.00;;;;;;;14.17;100.00;98374.94;5079168;28;20597;-79
2023/09/29 02:25:41;;;;;;;8.20;4.60;;;;;;;14.07;100.00;98380.16;5079668;28;20238;-79
2023/09/29 02:28:09;;;;;;;6.23;4.13;;;;;;;14.04;100.00;98384.81;5078911;28;20554;-79
2023/09/29 02:30:36;;;;;;;6.30;4.33;;;;;;;14.02;100.00;98381.44;5079553;28;20211;-78
2023/09/29 02:33:04;;;;;;;5.23;4.10;;;;;;;14.05;100.00;98381.22;5078734;28;20211;-78
2023/09/29 02:35:31;;;;;;;5.87;4.17;;;;;;;14.03;100.00;98380.47;5079120;28;20211;-79
2023/09/29 02:37:57;;;;;;;6.17;3.83;;;;;;;14.08;100.00;98381.81;5079220;28;20217;-78
2023/09/29 02:40:24;;;;;;;5.73;3.73;;;;;;;14.10;100.00;98379.88;5078623;28;20231;-79
2023/09/29 02:42:51;;;;;;;4.97;4.20;;;;;;;14.15;100.00;98376.84;5079084;28;20562;-79
2023/09/29 02:45:18;;;;;;;5.77;4.03;;;;;;;14.19;100.00;98373.03;5078782;28;20223;-78
2023/09/29 02:47:46;;;;;;;4.97;3.60;;;;;;;14.23;100.00;98379.81;5078928;28;20619;-78
2023/09/29 02:50:14;;;;;;;6.70;3.77;;;;;;;14.27;100.00;98375.91;5079118;28;20234;-78
2023/09/29 02:52:42;;;;;;;4.23;3.80;;;;;;;14.26;100.00;98380.41;5078559;28;20318;-79
2023/09/29 02:55:12;;;;;;;6.47;4.17;;;;;;;14.33;100.00;98381.59;5079015;28;20207;-78
2023/09/29 02:57:40;;;;;;;4.57;3.70;;;;;;;14.33;100.00;98375.41;5079500;28;20625;-79
2023/09/29 03:00:12;;;;;;;4.83;3.30;;;;;;;14.33;100.00;98386.06;5078144;28;20683;-79
2023/09/29 03:02:38;;;;;;;4.57;3.87;;;;;;;14.39;100.00;98375.78;5078868;28;20223;-78
2023/09/29 03:05:09;;;;;;;3.60;3.20;;;;;;;14.35;100.00;98378.81;5078326;28;20234;-79
2023/09/29 03:07:37;;;;;;;5.20;3.63;;;;;;;14.34;100.00;98375.31;5078938;28;20233;-79
2023/09/29 03:10:05;;;;;;;4.03;3.43;;;;;;;14.33;100.00;98373.63;5077508;28;20213;-78
2023/09/29 03:12:32;;;;;;;5.13;3.57;;;;;;;14.29;100.00;98374.00;5075317;28;20266;-79
2023/09/29 03:14:58;;;;;;;5.50;3.67;;;;;;;14.25;100.00;98375.19;5078150;28;20203;-79
2023/09/29 03:17:25;;;;;;;5.53;3.60;;;;;;;14.28;100.00;98373.13;5078647;28;20207;-78
2023/09/29 03:19:52;;;;;;;5.17;3.50;;;;;;;14.22;100.00;98375.41;5078297;28;20211;-78
2023/09/29 03:22:19;;;;;;;5.10;3.67;;;;;;;14.23;100.00;98374.47;5078413;28;20257;-79
2023/09/29 03:24:46;;;;;;;4.00;3.00;;;;;;;14.20;100.00;98375.56;5079114;28;20592;-79
2023/09/29 03:27:13;;;;;;;4.43;3.47;;;;;;;14.16;100.00;98370.56;5078647;28;20211;-79
2023/09/29 03:29:40;;;;;;;7.70;3.50;;;;;;;14.09;100.00;98372.88;5079602;28;20211;-78
2023/09/29 03:32:08;;;;;;;5.60;3.27;;;;;;;14.07;100.00;98366.00;5078384;28;20272;-79
2023/09/29 03:34:34;;;;;;;4.40;3.87;;;;;;;13.99;100.00;98376.41;5076882;28;20241;-79
2023/09/29 03:37:01;;;;;;;4.97;3.67;;;;;;;14.00;100.00;98372.75;5078573;28;20213;-79
2023/09/29 03:39:27;;;;;;;5.73;3.53;;;;;;;14.04;100.00;98380.38;5078912;28;20241;-79
2023/09/29 03:41:55;;;;;;;4.53;3.10;;;;;;;13.99;100.00;98376.41;5078200;28;20231;-78
2023/09/29 03:44:24;;;;;;;4.60;3.47;;;;;;;13.96;100.00;98371.31;5079297;28;20204;-79
2023/09/29 03:46:50;;;;;;;4.47;3.33;;;;;;;13.91;100.00;98374.34;5078889;28;20723;-79
2023/09/29 03:49:19;;;;;;;4.47;3.47;;;;;;;13.90;100.00;98382.41;5077788;28;20218;-78
2023/09/29 03:51:46;;;;;;;4.17;3.40;;;;;;;13.84;100.00;98377.59;5077442;28;20227;-79
2023/09/29 03:54:12;;;;;;;5.63;4.03;;;;;;;13.81;100.00;98377.84;5078599;28;20207;-79
2023/09/29 03:56:39;;;;;;;4.17;3.53;;;;;;;13.77;100.00;98373.72;5078296;28;20207;-79
2023/09/29 03:59:08;;;;;;;4.90;3.97;;;;;;;13.72;100.00;98373.22;5078190;28;20678;-78
2023/09/29 04:01:35;;;;;;;5.33;3.90;;;;;;;13.77;100.00;98384.34;5077891;28;20253;-78
2023/09/29 04:04:02;;;;;;;4.37;3.60;;;;;;;13.81;100.00;98385.81;5078236;28;20743;-79
2023/09/29 04:06:29;;;;;;;6.57;3.80;;;;;;;13.84;100.00;98396.19;5077954;28;20237;-79
2023/09/29 04:08:55;;;;;;;5.23;4.00;;;;;;;13.90;100.00;98395.69;5078636;28;20212;-81
2023/09/29 04:11:22;;;;;;;4.80;3.50;;;;;;;13.94;100.00;98399.81;5078277;28;20721;-78
2023/09/29 04:13:48;;;;;;;4.07;3.40;;;;;;;14.03;100.00;98383.13;5078630;28;20215;-78
2023/09/29 04:16:17;;;;;;;6.50;4.03;;;;;;;14.10;100.00;98379.88;5078357;28;20627;-78
2023/09/29 04:18:43;;;;;;;8.33;3.87;;;;;;;14.18;100.00;98379.28;5077682;28;20207;-78
2023/09/29 04:21:14;;;;;;;6.53;3.67;;;;;;;14.24;100.00;98382.31;5078147;28;20604;-78
2023/09/29 04:23:41;;;;;;;5.57;3.77;;;;;;;14.31;100.00;98382.69;5078307;28;20605;-78
2023/09/29 04:26:15;;;;;;;4.87;3.80;;;;;;;14.40;100.00;98387.25;5077665;28;20235;-78
2023/09/29 04:28:42;;;;;;;5.63;3.80;;;;;;;14.45;100.00;98396.56;5078345;28;20626;-79
2023/09/29 04:31:08;;;;;;;4.70;3.63;;;;;;;14.50;100.00;98399.69;5078479;28;20239;-79
2023/09/29 04:33:36;;;;;;;5.80;3.53;;;;;;;14.59;100.00;98408.72;5079826;28;20211;-79
2023/09/29 04:36:03;;;;;;;5.20;3.80;;;;;;;14.64;100.00;98414.53;5077562;28;20208;-78
2023/09/29 04:38:29;;;;;;;5.97;3.67;;;;;;;14.64;100.00;98407.41;5078930;28;20207;-79
2023/09/29 04:40:56;;;;;;;4.77;3.40;;;;;;;14.64;100.00;98411.88;5078335;28;20302;-79
2023/09/29 04:43:22;;;;;;;6.07;3.77;;;;;;;14.66;100.00;98404.63;5077388;28;20211;-78
2023/09/29 04:45:49;;;;;;;6.20;3.70;;;;;;;14.72;100.00;98409.44;5079359;28;20231;-79
2023/09/29 04:48:15;;;;;;;5.33;3.43;;;;;;;14.70;100.00;98406.03;5079255;28;20223;-79
2023/09/29 04:50:43;;;;;;;4.63;3.10;;;;;;;14.71;100.00;98405.06;5078155;28;20215;-79
2023/09/29 04:53:10;;;;;;;6.13;3.40;;;;;;;14.70;100.00;98398.06;5078801;28;20314;-79
2023/09/29 04:55:36;;;;;;;5.23;3.53;;;;;;;14.71;100.00;98397.09;5079078;28;20214;-79
2023/09/29 04:58:03;;;;;;;5.97;3.40;;;;;;;14.72;100.00;98399.63;5078915;28;20564;-79
2023/09/29 05:00:30;;;;;;;5.23;3.53;;;;;;;14.77;100.00;98401.91;5079190;28;20208;-78
2023/09/29 05:02:56;;;;;;;5.40;3.73;;;;;;;14.77;100.00;98400.09;5080622;28;20594;-79
2023/09/29 05:05:23;;;;;;;5.93;3.80;;;;;;;14.78;100.00;98399.13;5083057;28;20231;-79
2023/09/29 05:07:51;;;;;;;4.37;3.70;;;;;;;14.79;100.00;98400.00;5081896;28;20215;-79
2023/09/29 05:10:19;;;;;;;4.90;3.50;;;;;;;14.81;100.00;98396.25;5081220;28;20210;-79
2023/09/29 05:12:46;;;;;;;5.40;3.80;;;;;;;14.84;100.00;98395.16;5083029;28;20250;-79
2023/09/29 05:15:13;;;;;;;4.70;3.70;;;;;;;14.87;100.00;98389.56;5081091;28;20260;-80
2023/09/29 05:17:39;;;;;;;7.80;4.10;;;;;;;14.88;100.00;98386.78;5083475;28;20222;-78
2023/09/29 05:20:07;;;;;;;6.87;4.00;;;;;;;14.91;100.00;98388.34;5083123;28;20211;-78
2023/09/29 05:22:34;;;;;;;8.23;4.07;;;;;;;14.95;100.00;98401.25;5082959;28;20274;-78
2023/09/29 05:25:03;;;;;;;8.70;4.37;;;;;;;14.93;100.00;98399.69;5083489;28;20212;-78
2023/09/29 05:27:31;;;;;;;5.60;4.47;;;;;;;14.92;100.00;98409.47;5083123;28;20696;-78
2023/09/29 05:29:58;;;;;;;7.50;4.93;;;;;;;14.96;100.00;98410.09;5083151;28;20211;-78
2023/09/29 05:32:25;;;;;;;6.20;4.63;;;;;;;14.95;100.00;98419.03;5081994;28;20228;-78
2023/09/29 05:34:52;;;;;;;6.60;4.33;;;;;;;14.95;100.00;98416.38;5082674;28;20245;-80
2023/09/29 05:37:18;;;;;;;6.03;4.20;;;;;;;14.94;100.00;98410.22;5083055;28;20230;-79
2023/09/29 05:39:45;;;;;;;5.97;4.30;;;;;;;14.97;100.00;98414.44;5083049;28;20241;-79
2023/09/29 05:42:13;;;;;;;5.73;4.23;;;;;;;15.06;100.00;98413.69;5082427;28;20239;-79
2023/09/29 05:44:39;;;;;;;6.20;4.40;;;;;;;15.11;100.00;98416.81;5083131;28;20207;-79
2023/09/29 05:47:06;;;;;;;6.77;4.10;;;;;;;15.15;100.00;98402.28;5091142;28;20227;-78
2023/09/29 05:49:32;;;;;;;8.57;4.63;;;;;;;15.24;100.00;98401.50;5091021;28;20203;-78
2023/09/29 05:51:59;;;;;;;5.93;4.23;;;;;;;15.26;100.00;98412.84;5091233;28;20238;-79
2023/09/29 05:54:25;;;;;;;6.63;4.03;;;;;;;15.37;100.00;98407.50;5092189;28;20204;-79
2023/09/29 05:56:52;;;;;;;6.27;4.53;;;;;;;15.40;100.00;98416.09;5091720;28;20211;-79
2023/09/29 05:59:19;;;;;;;5.70;4.20;;;;;;;15.43;100.00;98417.66;5091584;28;20217;-79
2023/09/29 06:01:46;;;;;;;6.40;4.03;;;;;;;15.49;100.00;98419.81;5093245;28;20227;-78
2023/09/29 06:04:12;;;;;;;6.37;4.33;;;;;;;15.55;100.00;98417.47;5092053;28;20207;-79
2023/09/29 06:06:39;;;;;;;6.87;4.60;;;;;;;15.63;100.00;98408.84;5077740;28;20585;-81
2023/09/29 06:09:06;;;;;;;6.23;4.57;;;;;;;15.69;100.00;98424.28;5075424;28;20207;-79
2023/09/29 06:11:33;;;;;;;10.13;4.43;;;;;;;15.73;100.00;98415.06;5075603;28;20231;-80
2023/09/29 06:13:59;;;;;;;7.63;4.73;;;;;;;15.77;100.00;98427.16;5075586;28;20210;-78
2023/09/29 06:16:27;;;;;;;6.83;4.60;;;;;;;15.81;100.00;98417.91;5077283;28;20269;-79
2023/09/29 06:18:53;;;;;;;7.63;4.80;;;;;;;15.86;100.00;98424.53;5076166;28;20204;-79
2023/09/29 06:21:20;;;;;;;7.13;4.57;;;;;;;15.98;100.00;98420.81;5074874;28;20246;-79
2023/09/29 06:23:46;;;;;;;7.43;4.77;;;;;;;16.11;99.59;98421.44;5075608;28;20674;-79
2023/09/29 06:26:13;;;;;;;5.30;4.27;;;;;;;16.27;98.89;98422.63;5075239;28;20227;-79
2023/09/29 06:28:39;;;;;;;6.40;4.20;;;;;;;16.37;97.30;98418.19;5074931;28;20204;-79
2023/09/29 06:31:06;;;;;;;5.93;3.93;;;;;;;16.47;96.29;98429.75;5074514;28;20736;-79
2023/09/29 06:33:34;;;;;;;7.37;4.17;;;;;;;16.52;95.98;98429.38;5074748;28;20204;-79
2023/09/29 06:36:00;;;;;;;7.80;4.90;;;;;;;16.51;95.60;98419.69;5074762;28;20223;-79
2023/09/29 06:38:28;;;;;;;5.77;4.30;;;;;;;16.54;95.85;98430.94;5073409;28;20600;-79
2023/09/29 06:40:57;;;;;;;7.20;4.70;;;;;;;16.56;95.47;98426.28;5074301;28;20598;-79
2023/09/29 06:43:23;;;;;;;8.20;4.57;;;;;;;16.56;95.22;98428.09;5074963;28;20226;-79
2023/09/29 06:45:50;;;;;;;6.07;4.33;;;;;;;16.57;94.79;98419.97;5074578;28;20231;-79
2023/09/29 06:48:17;;;;;;;7.20;4.40;;;;;;;16.60;94.39;98430.41;5074779;28;20207;-79
2023/09/29 06:50:44;;;;;;;6.30;4.77;;;;;;;16.72;93.45;98436.44;5074465;28;20381;-80
2023/09/29 06:53:11;;;;;;;6.47;4.60;;;;;;;16.78;92.92;98434.09;5074236;28;20207;-79
2023/09/29 06:55:37;;;;;;;10.73;4.50;;;;;;;16.81;92.52;98436.47;5074098;28;20669;-79
2023/09/29 06:58:04;;;;;;;5.67;4.30;;;;;;;16.86;92.01;98434.25;5074176;28;20213;-79
2023/09/29 07:00:31;;;;;;;7.17;4.67;;;;;;;16.90;91.60;98435.66;5074089;28;20234;-79
2023/09/29 07:02:57;;;;;;;5.63;4.20;;;;;;;17.00;91.38;98436.50;5074268;28;20211;-80
2023/09/29 07:05:24;;;;;;;6.63;4.10;;;;;;;17.07;91.11;98440.31;5074165;28;20203;-80
2023/09/29 07:07:52;;;;;;;7.50;4.80;;;;;;;17.16;90.44;98439.50;5075786;28;20215;-80
2023/09/29 07:10:19;;;;;;;5.87;4.30;;;;;;;17.24;90.01;98428.94;5075627;28;20624;-79
2023/09/29 07:12:46;;;;;;;5.30;3.97;;;;;;;17.30;89.13;98423.03;5072880;28;20231;-80
2023/09/29 07:15:13;;;;;;;4.47;3.90;;;;;;;17.39;88.23;98418.72;5073630;28;20211;-80
2023/09/29 07:17:41;;;;;;;7.40;4.30;;;;;;;17.47;87.94;98422.38;5074302;28;20233;-79
2023/09/29 07:20:08;;;;;;;6.20;4.57;;;;;;;17.61;87.39;98432.63;5073434;28;20218;-79
2023/09/29 07:22:35;;;;;;;4.67;3.60;;;;;;;17.72;86.78;98416.41;5072514;28;20239;-78
2023/09/29 07:25:03;;;;;;;4.63;4.03;;;;;;;17.95;86.38;98422.28;5071858;28;20433;-78
2023/09/29 07:27:31;;;;;;;5.53;4.10;;;;;;;18.04;86.15;98416.09;5073537;28;20677;-79
2023/09/29 07:29:58;;;;;;;6.70;4.80;;;;;;;18.19;85.47;98415.47;5072760;28;20207;-79
2023/09/29 07:32:25;;;;;;;5.23;4.03;;;;;;;18.21;84.40;98423.31;5073723;28;20721;-80
2023/09/29 07:34:52;;;;;;;5.30;3.93;;;;;;;18.27;84.47;98418.25;5080094;28;20202;-79
2023/09/29 07:37:18;;;;;;;5.43;3.73;;;;;;;18.27;84.48;98418.25;5094069;28;20199;-79
2023/09/29 07:39:44;;;;;;;7.43;4.40;;;;;;;18.31;83.77;98419.69;5094183;28;20210;-79
2023/09/29 07:42:12;;;;;;;5.07;3.87;;;;;;;18.32;83.50;98420.50;5094186;28;20229;-79
2023/09/29 07:44:39;;;;;;;6.38;4.07;;;;;;;18.36;83.27;98412.03;5094816;28;20443;-79
2023/09/29 07:47:08;;;;;;;5.90;4.00;;;;;;;18.41;83.12;98420.47;5093254;28;20459;-79
2023/09/29 07:49:40;;;;;;;5.60;4.07;;;;;;;18.44;82.89;98430.88;5093968;28;20294;-79
2023/09/29 07:52:06;;;;;;;6.27;3.70;;;;;;;18.43;82.59;98434.56;5094307;28;20321;-78
2023/09/29 07:54:34;;;;;;;5.70;3.77;;;;;;;18.55;82.65;98433.38;5094200;28;20206;-79
2023/09/29 07:57:00;;;;;;;6.93;4.28;;;;;;;18.72;82.06;98427.19;5093880;28;20850;-79
2023/09/29 07:59:29;;;;;;;6.23;3.63;;;;;;;18.85;81.71;98427.72;5094713;28;20210;-80
2023/09/29 08:01:58;;;;;;;5.80;4.30;;;;;;;19.03;81.17;98423.19;5094236;28;20248;-79
2023/09/29 08:04:24;;;;;;;5.87;4.00;;;;;;;19.17;80.12;98413.81;5094025;28;20203;-80
2023/09/29 08:06:51;;;;;;;6.00;4.03;;;;;;;19.25;79.47;98419.25;5094084;28;20226;-80
2023/09/29 08:09:17;;;;;;;4.73;3.50;;;;;;;19.34;78.92;98421.91;5093576;28;20202;-79
2023/09/29 08:11:44;;;;;;;5.33;3.67;;;;;;;19.46;78.73;98420.66;5093045;28;20233;-79
2023/09/29 08:14:10;;;;;;;5.40;3.87;;;;;;;19.62;77.76;98423.47;5093617;28;20211;-79
2023/09/29 08:16:39;;;;;;;5.68;4.10;;;;;;;19.69;76.96;98421.03;5093167;28;20895;-79
2023/09/29 08:19:05;;;;;;;5.77;4.07;;;;;;;19.74;76.20;98411.50;5094024;28;20210;-79
2023/09/29 08:21:33;;;;;;;4.60;3.80;;;;;;;19.92;75.37;98423.03;5094098;28;20230;-79
2023/09/29 08:24:03;;;;;;;7.03;3.63;;;;;;;20.23;74.81;98418.91;5094028;28;20210;-79
2023/09/29 08:26:30;;;;;;;5.53;3.90;;;;;;;20.56;73.87;98409.19;5093882;28;20283;-81
2023/09/29 08:28:57;;;;;;;5.53;4.07;;;;;;;20.83;70.58;98404.41;5094165;28;20213;-79
2023/09/29 08:31:24;;;;;;;5.17;3.57;;;;;;;20.93;69.19;98394.41;5093704;28;20231;-79
2023/09/29 08:33:52;;;;;;;4.60;3.63;;;;;;;20.85;69.23;98397.00;5093520;28;20296;-79
2023/09/29 08:36:18;;;;;;;6.80;3.60;;;;;;;20.64;69.94;98393.94;5093695;28;20210;-80
2023/09/29 08:38:45;;;;;;;5.60;3.90;;;;;;;20.57;69.92;98395.59;5097885;28;20219;-78
2023/09/29 08:41:12;;;;;;;4.20;3.57;;;;;;;20.40;70.79;98401.88;5097228;28;20798;-79
2023/09/29 08:43:41;;;;;;;5.07;3.97;;;;;;;20.34;71.19;98402.53;5097482;28;20202;-79
2023/09/29 08:46:10;;;;;;;6.13;3.90;;;;;;;20.37;71.74;98402.19;5097807;28;20203;-79
2023/09/29 08:48:36;;;;;;;4.77;3.83;;;;;;;20.34;72.08;98402.53;5097784;28;20273;-79
2023/09/29 08:51:05;;;;;;;5.73;3.50;;;;;;;20.21;72.67;98412.88;5097178;28;20248;-79
2023/09/29 08:53:32;;;;;;;4.07;3.27;;;;;;;20.14;72.81;98421.69;5098151;28;20638;-79
2023/09/29 08:56:04;;;;;;;6.43;3.80;;;;;;;20.23;73.16;98420.75;5097155;28;20221;-79
2023/09/29 08:58:32;;;;;;;3.90;3.10;;;;;;;20.37;73.79;98418.28;5097142;28;20217;-79
2023/09/29 09:00:59;;;;;;;5.13;3.40;;;;;;;20.51;73.54;98419.56;5096485;28;20226;-79
2023/09/29 09:03:26;;;;;;;6.57;3.53;;;;;;;20.72;72.84;98406.56;5097443;28;20214;-79
2023/09/29 09:05:53;;;;;;;4.90;3.45;;;;;;;20.84;72.25;98406.09;5095199;28;20436;-79
2023/09/29 09:08:22;;;;;;;4.87;3.57;;;;;;;21.00;72.35;98399.94;5095788;28;20249;-79
2023/09/29 09:10:50;;;;;;;3.87;3.20;;;;;;;21.11;71.04;98395.13;5096129;28;20227;-79
2023/09/29 09:13:21;;;;;;;4.53;3.10;;;;;;;21.32;71.29;98392.78;5096431;28;20289;-79
2023/09/29 09:15:55;;;;;;;5.33;3.43;;;;;;;21.49;70.05;98391.78;5096608;28;20267;-79
2023/09/29 09:18:23;;;;;;;4.73;3.70;;;;;;;21.85;69.14;98385.09;5097382;28;20212;-79
2023/09/29 09:20:52;;;;;;;5.60;3.40;;;;;;;22.12;67.68;98382.00;5096711;28;20325;-80
2023/09/29 09:23:18;;;;;;;4.73;3.10;;;;;;;22.42;65.62;98369.59;5097314;28;20207;-81
2023/09/29 09:25:47;;;;;;;5.57;3.47;;;;;;;22.80;65.19;98380.41;5097156;28;20229;-79
2023/09/29 09:28:17;;;;;;;4.80;3.57;;;;;;;23.22;64.05;98370.09;5096913;28;20237;-81
2023/09/29 09:30:44;;;;;;;4.77;3.30;;;;;;;23.51;61.87;98358.56;5095381;28;20227;-80
2023/09/29 09:33:18;;;;;;;4.80;3.63;;;;;;;23.65;60.95;98353.22;5074558;28;20309;-81
2023/09/29 09:35:45;;;;;;;5.23;3.30;;;;;;;23.76;61.16;98366.28;5070222;28;20695;-80
2023/09/29 09:38:11;;;;;;;4.30;3.33;;;;;;;23.86;61.50;98369.56;5085259;28;20259;-81
2023/09/29 09:40:38;;;;;;;3.87;3.30;;;;;;;24.04;60.26;98367.41;5090191;28;20586;-81
2023/09/29 09:43:08;;;;;;;4.23;3.40;;;;;;;24.07;59.84;98356.22;5070899;28;20302;-81
2023/09/29 09:45:39;;;;;;;4.33;3.37;;;;;;;24.10;59.65;98355.84;5089603;28;20663;-81
2023/09/29 09:48:07;;;;;;;5.13;3.03;;;;;;;24.07;59.51;98356.22;5095018;28;20223;-80
2023/09/29 09:50:36;;;;;;;4.53;3.40;;;;;;;24.02;60.05;98357.78;5096574;28;20214;-80
2023/09/29 09:53:05;;;;;;;4.00;3.30;;;;;;;23.92;60.52;98359.91;5096536;28;20568;-81
2023/09/29 09:55:37;;;;;;;5.57;3.50;;;;;;;23.80;60.96;98369.44;5096494;28;20210;-80
2023/09/29 09:58:09;;;;;;;4.70;3.37;;;;;;;23.72;61.49;98373.03;5096383;28;20281;-79
2023/09/29 10:00:37;;;;;;;4.37;3.03;;;;;;;23.67;61.47;98372.78;5096409;28;20203;-80
2023/09/29 10:03:11;;;;;;;4.93;3.63;;;;;;;23.58;61.73;98368.47;5096713;28;20199;-81
2023/09/29 10:05:40;;;;;;;4.30;3.60;;;;;;;23.44;61.92;98374.66;5097065;28;20203;-81
2023/09/29 10:08:08;;;;;;;4.07;3.03;;;;;;;23.29;62.48;98365.66;5095654;28;20226;-80
2023/09/29 10:10:37;;;;;;;3.83;2.97;;;;;;;23.19;63.14;98367.75;5095440;28;20207;-80
2023/09/29 10:13:05;;;;;;;4.30;3.13;;;;;;;23.17;63.54;98372.47;5095765;28;20687;-81
2023/09/29 10:15:32;;;;;;;3.40;3.00;;;;;;;23.23;63.49;98369.06;5095222;28;20215;-80
2023/09/29 10:18:03;;;;;;;3.97;3.17;;;;;;;23.39;63.21;98377.03;5094862;28;20207;-81
2023/09/29 10:20:34;;;;;;;5.57;3.40;;;;;;;23.48;61.88;98365.16;5095468;28;20218;-80
2023/09/29 10:23:06;;;;;;;3.33;3.03;;;;;;;23.65;61.86;98366.72;5096275;28;20203;-80
2023/09/29 10:25:33;;;;;;;4.20;3.13;;;;;;;23.85;60.55;98357.09;5095257;28;20226;-80
2023/09/29 10:28:01;;;;;;;3.45;3.10;;;;;;;24.02;60.70;98363.19;5094318;28;20464;-80
2023/09/29 10:30:28;;;;;;;4.23;3.10;;;;;;;24.13;60.43;98357.34;5096209;28;20585;-81
2023/09/29 10:33:05;;;;;;;3.27;2.97;;;;;;;;;;5098237;28;20202;-80
2023/09/29 10:35:33;;;;;;;4.73;3.23;;;;;;;24.39;59.24;98355.84;5096096;28;20235;-81
2023/09/29 10:38:07;;;;;;;3.83;2.93;;;;;;;24.67;60.57;98359.59;5094816;28;20211;-81
2023/09/29 10:40:33;;;;;;;4.00;3.00;;;;;;;24.75;59.24;98351.34;5094949;28;20245;-81
2023/09/29 10:43:02;;;;;;;3.57;2.90;;;;;;;24.82;59.04;98344.16;5095625;28;20213;-81
2023/09/29 10:45:35;;;;;;;3.53;3.00;;;;;;;24.97;56.79;98334.16;5096340;28;20309;-81
2023/09/29 10:48:06;;;;;;;5.50;2.80;;;;;;;25.25;55.68;98321.59;5096818;28;20271;-80
2023/09/29 10:50:39;;;;;;;3.83;2.83;;;;;;;25.41;53.73;98299.66;5099727;28;20229;-78
2023/09/29 10:53:07;;;;;;;2.70;2.37;;;;;;;25.54;53.88;98310.59;5096996;28;20209;-82
2023/09/29 10:55:35;;;;;;;3.73;2.40;;;;;;;25.65;53.64;98307.38;5095218;28;20207;-82
2023/09/29 10:58:03;;;;;;;3.93;2.63;;;;;;;25.71;52.46;98301.16;5096300;28;20225;-82
2023/09/29 11:00:30;;;;;;;2.50;2.30;;;;;;;25.79;52.67;98303.72;5095288;28;20207;-82
2023/09/29 11:02:56;;;;;;;3.97;2.70;;;;;;;25.83;52.26;98296.88;5095404;28;20696;-82
2023/09/29 11:05:24;;;;;;;2.30;2.10;;;;;;;25.96;51.64;98299.72;5095739;28;20207;-82
2023/09/29 11:07:52;;;;;;;4.03;2.43;;;;;;;26.04;51.63;98291.41;5095655;28;20230;-82
2023/09/29 11:10:20;;;;;;;3.00;2.50;;;;;;;26.15;51.34;98296.28;5095779;28;20663;-82
2023/09/29 11:12:46;;;;;;;3.07;2.53;;;;;;;26.15;51.54;98292.75;5095158;28;20233;-82
2023/09/29 11:15:13;;;;;;;3.07;2.50;;;;;;;26.18;52.05;98297.75;5095015;28;20214;-81
2023/09/29 11:17:45;;;;;;;3.90;2.50;;;;;;;26.19;52.21;98294.84;5095109;28;20207;-82
2023/09/29 11:20:16;;;;;;;3.13;2.80;;;;;;;26.19;52.01;98284.03;5094964;28;20688;-81
2023/09/29 11:22:45;;;;;;;2.80;2.60;;;;;;;26.30;52.20;98288.88;5094830;28;20226;-81
2023/09/29 11:25:18;;;;;;;3.20;2.70;;;;;;;26.27;51.05;98267.59;5094417;28;20241;-81
2023/09/29 11:27:50;;;;;;;2.83;2.63;;;;;;;26.37;51.34;98276.19;5094669;28;20231;-81
2023/09/29 11:30:17;;;;;;;3.00;2.50;;;;;;;26.49;51.53;98280.00;5095106;28;20206;-81